Time;durP1;ratioP1;P1;durP2;ratioP2;P2;SDS_P1;SDS_P2;PMS_P1;PMS_P2;Temp;Humidity;BMP_temperature;BMP_pressure;BME280_temperature;BME280_humidity;BME280_pressure;Samples;Min_cycle;Max_cycle;Signal;HPM_P1;HPM_P2
2022/08/26 00:01:29;;;;;;;17.08;7.70;;;22.60;99.90;;;;;;5110427;28;20023;-82
2022/08/26 00:03:55;;;;;;;19.55;7.88;;;22.60;99.90;;;;;;5111981;28;20072;-82
2022/08/26 00:06:20;;;;;;;22.90;7.47;;;22.60;99.90;;;;;;5111459;28;20047;-82
2022/08/26 00:08:46;;;;;;;15.05;7.95;;;22.60;99.90;;;;;;5108209;28;20050;-83
2022/08/26 00:11:12;;;;;;;19.17;8.95;;;22.60;99.90;;;;;;5110208;28;20494;-81
2022/08/26 00:13:40;;;;;;;21.50;8.43;;;22.60;99.90;;;;;;5109738;28;20028;-83
2022/08/26 00:16:06;;;;;;;31.70;9.85;;;22.60;99.90;;;;;;5122282;28;20031;-83
2022/08/26 00:18:32;;;;;;;21.05;10.40;;;22.50;99.90;;;;;;5127632;28;20039;-80
2022/08/26 00:20:57;;;;;;;24.55;9.27;;;22.50;99.90;;;;;;5115290;28;20076;-84
2022/08/26 00:23:23;;;;;;;20.90;10.43;;;22.40;99.90;;;;;;5111324;28;20056;-82
2022/08/26 00:25:49;;;;;;;30.20;11.77;;;22.50;99.90;;;;;;5107969;28;20039;-83
2022/08/26 00:28:15;;;;;;;21.17;8.90;;;22.40;99.90;;;;;;5113205;28;20110;-84
2022/08/26 00:30:41;;;;;;;24.83;9.98;;;22.40;99.90;;;;;;5108013;28;20024;-82
2022/08/26 00:33:07;;;;;;;22.25;9.50;;;22.40;99.90;;;;;;5116012;28;20027;-81
2022/08/26 00:35:32;;;;;;;16.02;9.77;;;22.30;99.90;;;;;;5114669;28;20477;-81
2022/08/26 00:37:58;;;;;;;21.77;9.05;;;22.30;99.90;;;;;;5110357;28;20051;-82
2022/08/26 00:40:32;;;;;;;16.70;9.00;;;22.30;99.90;;;;;;5112987;28;20031;-81
2022/08/26 00:42:58;;;;;;;16.13;8.52;;;22.30;99.90;;;;;;5121420;27;20027;-82
2022/08/26 00:45:24;;;;;;;23.50;9.48;;;22.30;99.90;;;;;;5108946;28;20046;-81
2022/08/26 00:47:54;;;;;;;19.65;10.50;;;22.20;99.90;;;;;;5111441;28;20023;-83
2022/08/26 00:50:33;;;;;;;22.15;9.20;;;22.20;99.90;;;;;;5108738;28;20049;-83
2022/08/26 00:53:01;;;;;;;17.35;9.15;;;22.20;99.90;;;;;;5104991;28;20036;-87
2022/08/26 00:55:39;;;;;;;16.95;9.68;;;22.20;99.90;;;;;;5107679;28;20044;-81
2022/08/26 00:58:06;;;;;;;23.05;9.82;;;22.10;99.90;;;;;;5108497;28;20419;-85
2022/08/26 01:00:32;;;;;;;18.52;9.50;;;22.10;99.90;;;;;;5103791;28;20046;-82
2022/08/26 01:03:00;;;;;;;18.10;9.15;;;22.10;99.90;;;;;;5101924;28;20560;-83
2022/08/26 01:05:26;;;;;;;21.15;8.68;;;22.10;99.90;;;;;;5105850;28;20129;-83
2022/08/26 01:07:51;;;;;;;20.88;8.93;;;22.10;99.90;;;;;;5108691;28;20092;-82
2022/08/26 01:10:21;;;;;;;16.13;9.68;;;22.10;99.90;;;;;;5108615;28;20028;-82
2022/08/26 01:13:09;;;;;;;24.05;8.68;;;22.00;99.90;;;;;;5109548;28;20043;-82
2022/08/26 01:15:40;;;;;;;14.95;9.05;;;22.00;99.90;;;;;;5108601;28;20031;-82
2022/08/26 01:18:06;;;;;;;22.60;9.65;;;22.00;99.90;;;;;;5106732;28;20080;-82
2022/08/26 01:21:10;;;;;;;14.65;9.35;;;22.00;99.90;;;;;;5109302;28;20020;-82
2022/08/26 01:23:41;;;;;;;24.90;10.10;;;21.90;99.90;;;;;;5107436;28;20042;-84
2022/08/26 01:26:10;;;;;;;20.88;10.25;;;21.90;99.90;;;;;;5107359;28;20043;-82
2022/08/26 01:28:37;;;;;;;22.35;10.20;;;21.90;99.90;;;;;;5107646;28;20035;-80
2022/08/26 01:31:06;;;;;;;19.63;9.23;;;21.90;99.90;;;;;;5117343;27;20020;-81
2022/08/26 01:33:57;;;;;;;22.75;11.15;;;21.90;99.90;;;;;;5112225;28;20024;-83
2022/08/26 01:36:23;;;;;;;19.13;10.13;;;21.80;99.90;;;;;;5104796;28;20057;-82
2022/08/26 01:38:48;;;;;;;24.73;10.32;;;21.80;99.90;;;;;;5113840;28;20107;-82
2022/08/26 01:41:15;;;;;;;20.70;9.07;;;21.80;99.90;;;;;;5108473;28;20031;-83
2022/08/26 01:43:43;;;;;;;23.77;10.40;;;21.80;99.90;;;;;;5107004;28;20024;-83
2022/08/26 01:46:11;;;;;;;28.40;10.68;;;21.80;99.90;;;;;;5106311;28;20097;-82
2022/08/26 01:48:38;;;;;;;12.73;8.90;;;21.80;99.90;;;;;;5116907;28;20030;-82
2022/08/26 01:51:08;;;;;;;22.83;9.27;;;21.80;99.90;;;;;;5109412;28;20035;-85
2022/08/26 01:53:34;;;;;;;15.23;9.43;;;21.80;99.90;;;;;;5105542;28;20127;-83
2022/08/26 01:56:02;;;;;;;16.67;9.18;;;21.70;99.90;;;;;;5103023;28;20103;-83
2022/08/26 01:58:35;;;;;;;20.40;9.10;;;21.80;99.90;;;;;;5110040;28;20039;-83
2022/08/26 02:01:01;;;;;;;20.73;10.07;;;21.70;99.90;;;;;;5104214;28;20547;-83
2022/08/26 02:03:27;;;;;;;19.90;9.07;;;21.70;99.90;;;;;;5108170;28;20062;-85
2022/08/26 02:05:58;;;;;;;20.45;9.88;;;21.70;99.90;;;;;;5102117;28;20036;-82
2022/08/26 02:08:31;;;;;;;15.77;9.82;;;21.70;99.90;;;;;;5096235;28;20043;-84
2022/08/26 02:10:57;;;;;;;18.48;9.65;;;21.70;99.90;;;;;;5100946;28;20882;-83
2022/08/26 02:13:25;;;;;;;26.30;10.52;;;21.70;99.90;;;;;;5105229;28;20076;-83
2022/08/26 02:15:52;;;;;;;12.93;9.65;;;21.70;99.90;;;;;;5101658;28;20036;-82
2022/08/26 02:18:18;;;;;;;19.80;9.48;;;21.70;99.90;;;;;;5104208;28;20169;-83
2022/08/26 02:20:44;;;;;;;18.23;9.23;;;21.70;99.90;;;;;;5103608;28;20119;-83
2022/08/26 02:23:09;;;;;;;18.15;9.65;;;21.70;99.90;;;;;;5107578;28;20036;-83
2022/08/26 02:26:03;;;;;;;22.92;10.93;;;21.70;99.90;;;;;;5107337;28;20047;-83
2022/08/26 02:28:34;;;;;;;16.08;9.13;;;21.70;99.90;;;;;;5104240;28;20261;-81
2022/08/26 02:31:00;;;;;;;14.38;9.23;;;21.60;99.90;;;;;;5107470;28;20468;-82
2022/08/26 02:33:27;;;;;;;19.38;10.10;;;21.70;99.90;;;;;;5107187;28;20513;-83
2022/08/26 02:35:53;;;;;;;16.23;8.82;;;21.70;99.90;;;;;;5107903;28;20080;-83
2022/08/26 02:38:18;;;;;;;20.63;9.80;;;21.70;99.90;;;;;;5112508;28;20553;-82
2022/08/26 02:40:44;;;;;;;14.88;9.18;;;21.70;99.90;;;;;;5104054;28;20035;-82
2022/08/26 02:43:11;;;;;;;12.15;8.57;;;21.70;99.90;;;;;;5107774;28;20036;-85
2022/08/26 02:45:38;;;;;;;16.30;8.93;;;21.70;99.90;;;;;;5108390;28;20088;-85
2022/08/26 02:48:12;;;;;;;18.45;9.27;;;21.70;99.90;;;;;;5102208;28;20031;-86
2022/08/26 02:50:38;;;;;;;20.50;9.90;;;21.70;99.90;;;;;;5098997;28;20032;-82
2022/08/26 02:53:05;;;;;;;25.27;11.93;;;21.70;99.90;;;;;;5104402;28;20055;-83
2022/08/26 02:55:31;;;;;;;20.77;11.30;;;21.70;99.90;;;;;;5105973;28;20608;-82
2022/08/26 02:57:57;;;;;;;20.92;10.93;;;21.70;99.90;;;;;;5106605;28;20110;-84
2022/08/26 03:00:22;;;;;;;14.95;9.95;;;21.60;99.90;;;;;;5106439;28;20078;-85
2022/08/26 03:02:49;;;;;;;15.30;10.43;;;21.70;99.90;;;;;;5107454;28;20059;-85
2022/08/26 03:05:16;;;;;;;27.90;11.43;;;21.60;99.90;;;;;;5108357;28;20727;-83
2022/08/26 03:07:42;;;;;;;27.70;10.98;;;21.70;99.90;;;;;;5104450;28;20024;-82
2022/08/26 03:10:08;;;;;;;22.30;11.38;;;21.60;99.90;;;;;;5107162;28;20370;-82
2022/08/26 03:12:34;;;;;;;16.00;10.15;;;21.70;99.90;;;;;;5106891;28;20063;-82
2022/08/26 03:15:00;;;;;;;15.80;10.52;;;21.70;99.90;;;;;;5100847;28;20162;-82
2022/08/26 03:17:25;;;;;;;19.48;10.45;;;21.60;99.90;;;;;;5107297;28;20505;-85
2022/08/26 03:19:51;;;;;;;20.50;11.05;;;21.60;99.90;;;;;;5101579;28;20406;-82
2022/08/26 03:22:16;;;;;;;18.25;10.60;;;21.60;99.90;;;;;;5109190;28;20043;-84
2022/08/26 03:24:41;;;;;;;17.65;11.00;;;21.60;99.90;;;;;;5108178;28;20474;-83
2022/08/26 03:27:07;;;;;;;21.48;11.55;;;21.60;99.90;;;;;;5105740;28;20032;-83
2022/08/26 03:32:17;;;;;;;19.48;11.10;;;21.50;99.90;;;;;;5112289;28;20039;-84
2022/08/26 03:34:42;;;;;;;17.73;11.18;;;21.50;99.90;;;;;;5112430;28;20705;-84
2022/08/26 03:37:08;;;;;;;21.70;12.43;;;21.50;99.90;;;;;;5113584;28;20042;-83
2022/08/26 03:39:33;;;;;;;20.63;11.15;;;21.50;99.90;;;;;;5110836;28;20042;-83
2022/08/26 03:41:59;;;;;;;17.98;11.18;;;21.50;99.90;;;;;;5112076;28;20043;-82
2022/08/26 03:44:25;;;;;;;26.25;11.68;;;21.40;99.90;;;;;;5128274;28;20035;-81
2022/08/26 03:46:51;;;;;;;23.33;11.93;;;21.40;99.90;;;;;;5123475;28;20480;-83
2022/08/26 03:49:16;;;;;;;17.05;10.63;;;21.40;99.90;;;;;;5107921;28;20023;-83
2022/08/26 03:51:42;;;;;;;24.02;12.65;;;21.40;99.90;;;;;;5109654;28;20132;-82
2022/08/26 03:54:07;;;;;;;20.42;11.88;;;21.30;99.90;;;;;;5123060;27;20127;-82
2022/08/26 03:56:33;;;;;;;23.27;11.63;;;21.30;99.90;;;;;;5108122;28;20493;-82
2022/08/26 03:58:59;;;;;;;21.38;13.00;;;21.30;99.90;;;;;;5102023;28;20082;-83
2022/08/26 04:01:26;;;;;;;22.90;11.38;;;21.30;99.90;;;;;;5109422;28;20491;-84
2022/08/26 04:03:58;;;;;;;20.58;11.82;;;21.30;99.90;;;;;;5111118;28;20030;-85
2022/08/26 04:06:44;;;;;;;18.98;11.27;;;21.20;99.90;;;;;;5107535;28;20039;-83
2022/08/26 04:09:18;;;;;;;15.32;10.38;;;21.20;99.90;;;;;;5100317;28;20500;-85
2022/08/26 04:11:44;;;;;;;21.42;12.38;;;21.30;99.90;;;;;;5109292;28;20500;-83
2022/08/26 04:14:15;;;;;;;19.38;13.45;;;21.30;99.90;;;;;;5105713;28;20363;-84
2022/08/26 04:16:41;;;;;;;15.25;10.60;;;21.20;99.90;;;;;;5103834;28;20028;-83
2022/08/26 04:19:09;;;;;;;24.35;12.32;;;21.20;99.90;;;;;;5113324;28;20028;-85
2022/08/26 04:21:37;;;;;;;19.13;12.55;;;21.20;99.90;;;;;;5127256;27;20355;-84
2022/08/26 04:24:03;;;;;;;18.33;11.35;;;21.20;99.90;;;;;;5113624;27;20433;-83
2022/08/26 04:26:35;;;;;;;17.90;12.35;;;21.10;99.90;;;;;;5111199;28;20047;-82
2022/08/26 04:29:03;;;;;;;20.80;12.50;;;21.10;99.90;;;;;;5110968;28;20493;-86
2022/08/26 04:31:28;;;;;;;22.20;12.15;;;21.20;99.90;;;;;;5110900;28;20073;-84
2022/08/26 04:33:55;;;;;;;21.55;12.35;;;21.20;99.90;;;;;;5112834;28;20475;-82
2022/08/26 04:36:22;;;;;;;21.38;12.95;;;21.10;99.90;;;;;;5110732;28;20034;-82
2022/08/26 04:38:49;;;;;;;19.33;13.00;;;21.20;99.90;;;;;;5111456;28;20073;-82
2022/08/26 04:41:15;;;;;;;25.40;14.75;;;21.10;99.90;;;;;;5112083;27;20489;-81
2022/08/26 04:43:41;;;;;;;24.67;13.40;;;21.20;99.90;;;;;;5111053;28;20470;-81
2022/08/26 04:46:07;;;;;;;23.27;13.13;;;21.20;99.90;;;;;;5111322;28;20089;-82
2022/08/26 04:48:34;;;;;;;21.45;12.57;;;21.20;99.90;;;;;;5112372;28;20107;-83
2022/08/26 04:51:00;;;;;;;28.98;13.93;;;21.20;99.90;;;;;;5112327;28;20474;-81
2022/08/26 04:53:27;;;;;;;20.45;13.13;;;21.20;99.90;;;;;;5109184;27;20123;-82
2022/08/26 04:55:53;;;;;;;22.23;13.70;;;21.20;99.90;;;;;;5104687;28;20032;-83
2022/08/26 04:58:20;;;;;;;23.98;15.07;;;21.20;99.90;;;;;;5105458;27;20101;-82
2022/08/26 05:00:47;;;;;;;17.52;12.88;;;21.30;99.90;;;;;;5100809;28;20024;-82
2022/08/26 05:03:13;;;;;;;22.95;12.48;;;21.30;99.90;;;;;;5106638;27;20115;-83
2022/08/26 05:05:41;;;;;;;22.25;13.10;;;21.40;99.90;;;;;;5110273;28;20118;-82
2022/08/26 05:08:08;;;;;;;27.63;13.85;;;21.50;99.90;;;;;;5092888;27;20035;-84
2022/08/26 05:10:38;;;;;;;26.13;13.30;;;21.50;99.90;;;;;;5098062;28;20063;-84
2022/08/26 05:13:04;;;;;;;23.15;14.85;;;21.60;99.90;;;;;;5101193;28;20470;-83
2022/08/26 05:15:29;;;;;;;22.70;14.02;;;21.70;99.90;;;;;;5099961;28;20107;-83
2022/08/26 05:17:57;;;;;;;29.10;14.60;;;21.80;99.90;;;;;;5094991;28;20429;-81
2022/08/26 05:20:23;;;;;;;18.73;13.20;;;21.80;99.90;;;;;;5092766;28;20080;-81
2022/08/26 05:22:49;;;;;;;21.17;13.20;;;21.90;99.90;;;;;;5093839;28;20039;-81
2022/08/26 05:25:14;;;;;;;32.25;13.30;;;22.00;99.90;;;;;;5099483;28;20040;-81
2022/08/26 05:27:40;;;;;;;33.15;15.45;;;22.10;99.90;;;;;;5096161;28;20034;-80
2022/08/26 05:30:06;;;;;;;22.05;13.90;;;22.20;99.90;;;;;;5103912;28;20111;-79
2022/08/26 05:32:31;;;;;;;21.85;13.18;;;22.20;99.90;;;;;;5098400;28;20119;-79
2022/08/26 05:34:57;;;;;;;22.65;12.15;;;22.30;99.90;;;;;;5097513;28;20553;-79
2022/08/26 05:37:23;;;;;;;26.40;13.15;;;22.30;99.90;;;;;;5096043;28;20043;-80
2022/08/26 05:39:48;;;;;;;19.13;12.73;;;22.50;99.90;;;;;;5095708;28;20084;-81
2022/08/26 05:42:14;;;;;;;19.17;11.82;;;22.60;99.90;;;;;;5126399;28;20023;-80
2022/08/26 05:44:40;;;;;;;23.27;12.52;;;22.60;99.90;;;;;;5098402;28;20031;-81
2022/08/26 05:47:06;;;;;;;14.70;11.27;;;22.70;99.90;;;;;;5100000;28;20440;-80
2022/08/26 05:49:31;;;;;;;24.20;12.70;;;22.80;99.90;;;;;;5099817;28;20023;-80
2022/08/26 05:51:57;;;;;;;28.23;11.43;;;22.80;99.90;;;;;;5102321;28;20032;-81
2022/08/26 05:54:22;;;;;;;21.60;12.27;;;23.00;99.90;;;;;;5100207;28;20055;-80
2022/08/26 05:56:51;;;;;;;23.90;12.32;;;23.00;99.90;;;;;;5100541;28;20032;-81
2022/08/26 05:59:17;;;;;;;19.23;12.05;;;23.00;99.90;;;;;;5105745;28;20033;-80
2022/08/26 06:01:42;;;;;;;16.63;10.25;;;23.10;99.90;;;;;;5107791;28;20027;-83
2022/08/26 06:04:08;;;;;;;18.15;11.70;;;23.10;99.90;;;;;;5108652;28;20181;-82
2022/08/26 06:06:36;;;;;;;18.30;12.57;;;23.20;99.90;;;;;;5108276;28;20044;-83
2022/08/26 06:09:05;;;;;;;27.17;13.98;;;23.20;99.90;;;;;;5108548;28;20030;-81
2022/08/26 06:11:32;;;;;;;21.38;12.60;;;23.20;99.90;;;;;;5107200;28;20023;-83
2022/08/26 06:14:00;;;;;;;28.92;12.88;;;23.20;99.90;;;;;;5108278;28;20027;-82
2022/08/26 06:16:27;;;;;;;32.33;13.50;;;23.30;99.90;;;;;;5109439;28;20032;-81
2022/08/26 06:18:53;;;;;;;27.42;12.68;;;23.30;99.90;;;;;;5108295;28;20034;-82
2022/08/26 06:21:29;;;;;;;19.15;12.07;;;23.40;99.90;;;;;;5107059;28;20027;-80
2022/08/26 06:26:49;;;;;;;26.98;14.38;;;23.50;99.90;;;;;;5109358;28;20034;-81
2022/08/26 06:29:16;;;;;;;30.80;13.77;;;23.50;99.90;;;;;;5108415;28;20555;-83
2022/08/26 06:31:42;;;;;;;15.82;11.38;;;23.60;99.90;;;;;;5107751;28;20030;-82
2022/08/26 06:34:08;;;;;;;29.98;12.48;;;23.60;99.90;;;;;;5109328;28;20016;-83
2022/08/26 06:36:35;;;;;;;25.23;13.65;;;23.70;99.90;;;;;;5111168;28;20124;-81
2022/08/26 06:39:05;;;;;;;22.38;14.38;;;23.70;99.90;;;;;;5110411;28;20019;-81
2022/08/26 06:41:32;;;;;;;23.65;12.18;;;23.70;99.90;;;;;;5109839;28;20040;-81
2022/08/26 06:43:59;;;;;;;19.63;11.48;;;23.80;99.90;;;;;;5104581;28;20024;-81
2022/08/26 06:46:25;;;;;;;23.50;13.57;;;23.90;99.90;;;;;;5092826;28;20106;-82
2022/08/26 06:48:52;;;;;;;23.33;12.57;;;23.90;99.90;;;;;;5092546;28;20020;-81
2022/08/26 06:51:21;;;;;;;24.30;13.10;;;23.90;99.90;;;;;;5112423;28;20047;-81
2022/08/26 06:53:49;;;;;;;27.15;13.55;;;24.00;99.90;;;;;;5125714;28;20023;-83
2022/08/26 06:56:17;;;;;;;28.52;13.13;;;24.10;99.90;;;;;;5125219;28;20045;-82
2022/08/26 06:58:43;;;;;;;22.45;13.40;;;24.10;99.90;;;;;;5125215;28;20050;-82
2022/08/26 07:01:29;;;;;;;20.42;13.48;;;24.20;99.90;;;;;;5128686;28;20019;-81
2022/08/26 07:03:57;;;;;;;23.92;12.55;;;24.20;99.90;;;;;;5129806;28;20027;-82
2022/08/26 07:06:24;;;;;;;28.52;14.50;;;24.30;99.90;;;;;;5133029;28;20036;-81
2022/08/26 07:08:52;;;;;;;25.10;13.98;;;24.30;99.90;;;;;;5132291;28;20016;-79
2022/08/26 07:11:18;;;;;;;24.73;13.13;;;24.30;99.90;;;;;;5138179;28;20058;-81
2022/08/26 07:13:45;;;;;;;23.42;13.00;;;24.30;99.90;;;;;;5138097;28;20032;-82
2022/08/26 07:16:14;;;;;;;27.33;13.30;;;24.40;99.90;;;;;;5117079;28;20046;-82
2022/08/26 07:18:41;;;;;;;24.20;13.68;;;24.40;99.90;;;;;;5116473;28;20046;-81
2022/08/26 07:21:09;;;;;;;21.50;12.77;;;24.50;99.90;;;;;;5115131;28;20066;-81
2022/08/26 07:23:36;;;;;;;21.25;13.38;;;24.50;99.90;;;;;;5113754;28;20100;-81
2022/08/26 07:26:06;;;;;;;25.00;14.60;;;24.60;99.90;;;;;;5114477;28;20032;-81
2022/08/26 07:28:32;;;;;;;25.17;12.70;;;24.60;99.90;;;;;;5111790;28;20397;-81
2022/08/26 07:31:02;;;;;;;22.85;13.55;;;24.60;99.90;;;;;;5112546;28;20020;-80
2022/08/26 07:33:28;;;;;;;69.15;22.63;;;24.70;99.90;;;;;;5112326;28;20070;-80
2022/08/26 07:35:54;;;;;;;41.65;17.50;;;24.70;99.90;;;;;;5110267;28;20564;-79
2022/08/26 07:38:19;;;;;;;29.92;13.45;;;24.80;99.90;;;;;;5109822;28;20054;-80
2022/08/26 07:40:46;;;;;;;29.15;15.30;;;24.90;99.90;;;;;;5111299;28;20027;-80
2022/08/26 07:43:11;;;;;;;26.55;12.52;;;24.90;99.90;;;;;;5111219;28;20024;-79
2022/08/26 07:45:37;;;;;;;32.80;13.90;;;25.00;99.90;;;;;;5111575;28;20050;-80
2022/08/26 07:48:03;;;;;;;25.70;13.57;;;25.10;99.90;;;;;;5111930;28;20140;-86
2022/08/26 07:50:29;;;;;;;20.77;13.32;;;25.20;99.90;;;;;;5104006;28;20107;-80
2022/08/26 07:52:55;;;;;;;21.77;12.20;;;25.30;99.90;;;;;;5104280;28;20136;-80
2022/08/26 07:55:21;;;;;;;27.58;12.15;;;25.40;99.90;;;;;;5101458;28;20039;-80
2022/08/26 07:57:47;;;;;;;30.67;13.40;;;25.50;99.90;;;;;;5112425;28;20035;-83
2022/08/26 08:00:15;;;;;;;19.63;10.68;;;25.60;99.90;;;;;;5112539;28;20032;-83
2022/08/26 08:02:43;;;;;;;27.88;11.88;;;25.70;99.90;;;;;;5104466;28;20063;-81
2022/08/26 08:05:09;;;;;;;27.05;11.95;;;25.90;99.90;;;;;;5112987;28;20397;-85
2022/08/26 08:07:35;;;;;;;24.70;13.20;;;26.00;99.90;;;;;;5113933;28;20028;-81
2022/08/26 08:10:01;;;;;;;27.90;12.05;;;26.10;99.90;;;;;;5112787;28;20026;-80
2022/08/26 08:12:27;;;;;;;23.58;11.40;;;26.20;99.60;;;;;;5102094;28;20683;-83
2022/08/26 08:14:53;;;;;;;24.08;11.68;;;26.30;99.60;;;;;;5113045;28;20035;-81
2022/08/26 08:17:18;;;;;;;25.65;10.80;;;26.40;99.60;;;;;;5113392;28;20583;-81
2022/08/26 08:19:44;;;;;;;19.15;9.75;;;26.40;99.20;;;;;;5110548;28;20101;-80
2022/08/26 08:22:10;;;;;;;21.42;10.95;;;26.60;98.80;;;;;;5112908;28;20032;-80
2022/08/26 08:24:37;;;;;;;23.30;11.68;;;26.70;98.80;;;;;;5112328;28;20024;-86
2022/08/26 08:27:02;;;;;;;18.40;11.23;;;26.70;98.60;;;;;;5112199;28;20026;-80
2022/08/26 08:29:28;;;;;;;21.98;11.82;;;26.80;98.50;;;;;;5112636;28;20777;-81
2022/08/26 08:31:55;;;;;;;22.38;10.68;;;26.90;98.40;;;;;;5109237;28;20658;-80
2022/08/26 08:34:21;;;;;;;25.95;10.13;;;27.10;98.20;;;;;;5103431;28;20049;-80
2022/08/26 08:36:49;;;;;;;17.98;9.65;;;27.30;98.40;;;;;;5112427;28;20092;-80
2022/08/26 08:39:15;;;;;;;23.33;9.85;;;27.50;98.10;;;;;;5112254;28;20031;-84
2022/08/26 08:42:20;;;;;;;19.05;10.27;;;27.70;97.30;;;;;;5109339;28;20035;-79
2022/08/26 08:44:49;;;;;;;22.88;11.40;;;27.80;97.30;;;;;;5110610;28;20031;-80
2022/08/26 08:47:25;;;;;;;15.25;9.32;;;28.00;97.20;;;;;;5110717;28;20024;-82
2022/08/26 08:49:54;;;;;;;16.40;9.02;;;28.10;97.00;;;;;;5111044;28;20055;-80
2022/08/26 08:52:29;;;;;;;16.05;9.60;;;28.20;96.50;;;;;;5111695;28;20016;-81
2022/08/26 08:54:55;;;;;;;23.23;9.45;;;28.30;96.60;;;;;;5110856;28;20062;-79
2022/08/26 08:57:28;;;;;;;22.77;9.10;;;28.40;96.50;;;;;;5110531;28;20020;-79
2022/08/26 09:00:11;;;;;;;14.05;7.97;;;28.50;96.60;;;;;;5091333;28;20051;-82
2022/08/26 09:02:57;;;;;;;22.50;9.20;;;28.70;96.20;;;;;;5092316;28;20064;-81
2022/08/26 09:05:28;;;;;;;20.55;8.40;;;28.80;96.00;;;;;;5100641;28;20043;-88
2022/08/26 09:08:13;;;;;;;19.00;9.02;;;28.90;95.60;;;;;;5103755;28;20031;-81
2022/08/26 09:10:51;;;;;;;17.52;9.07;;;29.00;95.40;;;;;;5109732;28;20130;-87
2022/08/26 09:13:18;;;;;;;19.38;9.55;;;29.00;95.30;;;;;;5109850;28;20679;-81
2022/08/26 09:16:07;;;;;;;16.20;8.57;;;29.10;94.70;;;;;;5112020;28;20498;-81
2022/08/26 09:18:38;;;;;;;21.23;8.70;;;29.10;95.30;;;;;;5105188;27;20028;-81
2022/08/26 09:21:07;;;;;;;26.60;7.82;;;29.20;94.80;;;;;;5090968;28;20427;-81
2022/08/26 09:23:35;;;;;;;20.70;8.95;;;29.20;94.60;;;;;;5106790;28;20046;-81
2022/08/26 09:26:13;;;;;;;13.55;7.05;;;29.10;94.50;;;;;;5109285;28;20032;-86
2022/08/26 09:28:44;;;;;;;19.65;7.15;;;29.10;94.30;;;;;;5110539;28;20026;-80
2022/08/26 09:31:23;;;;;;;20.65;8.50;;;29.20;94.60;;;;;;5110285;28;20069;-80
2022/08/26 09:34:06;;;;;;;17.95;6.97;;;29.20;94.70;;;;;;5110351;28;20481;-86
2022/08/26 09:37:04;;;;;;;18.63;7.43;;;29.40;94.30;;;;;;5109531;28;20046;-85
2022/08/26 09:39:37;;;;;;;28.30;8.35;;;29.50;93.70;;;;;;5077052;28;20046;-80
2022/08/26 09:42:04;;;;;;;23.63;7.65;;;29.60;94.70;;;;;;5110627;28;20031;-80
2022/08/26 09:44:31;;;;;;;21.70;7.55;;;29.70;94.40;;;;;;5109916;28;20024;-80
2022/08/26 09:47:00;;;;;;;18.33;7.70;;;29.80;93.90;;;;;;5109271;28;20599;-81
2022/08/26 09:49:28;;;;;;;21.20;9.25;;;30.00;93.90;;;;;;5111750;28;20423;-86
2022/08/26 09:52:19;;;;;;;23.05;7.07;;;30.10;93.40;;;;;;5108905;28;20509;-81
2022/08/26 09:55:05;;;;;;;25.50;7.88;;;30.20;93.50;;;;;;5111117;28;20096;-80
2022/08/26 09:57:33;;;;;;;13.55;7.05;;;30.40;93.10;;;;;;5122124;27;20019;-81
2022/08/26 10:00:00;;;;;;;22.65;8.02;;;30.40;93.30;;;;;;5111451;28;20031;-87
2022/08/26 10:02:37;;;;;;;16.42;7.70;;;30.40;93.10;;;;;;5110888;28;20015;-82
2022/08/26 10:05:07;;;;;;;18.55;7.45;;;30.50;92.90;;;;;;5110018;28;20035;-81
2022/08/26 10:07:47;;;;;;;26.58;7.47;;;30.60;93.50;;;;;;5111041;28;20074;-80
2022/08/26 10:10:32;;;;;;;22.90;8.63;;;30.80;93.60;;;;;;5095353;28;20611;-82
2022/08/26 10:13:12;;;;;;;18.65;8.43;;;31.00;92.70;;;;;;5110947;28;20028;-79
2022/08/26 10:15:49;;;;;;;31.08;8.05;;;31.00;91.90;;;;;;5113762;28;20038;-80
2022/08/26 10:18:23;;;;;;;21.00;7.90;;;30.90;92.30;;;;;;5113857;28;20084;-80
2022/08/26 10:20:56;;;;;;;18.00;8.07;;;30.90;92.00;;;;;;5115655;28;20079;-83
2022/08/26 10:23:25;;;;;;;21.33;7.43;;;30.70;92.30;;;;;;5114427;28;20028;-80
2022/08/26 10:26:19;;;;;;;23.25;7.45;;;30.80;92.50;;;;;;5111360;28;20481;-81
2022/08/26 10:29:06;;;;;;;54.92;23.10;;;30.90;92.50;;;;;;5111691;28;20027;-80
2022/08/26 10:32:11;;;;;;;19.20;7.15;;;31.00;92.90;;;;;;5115340;28;20031;-81
2022/08/26 10:34:37;;;;;;;16.48;5.80;;;31.10;90.80;;;;;;5081186;28;20122;-80
2022/08/26 10:37:09;;;;;;;19.65;6.55;;;31.10;91.40;;;;;;5118223;28;20039;-78
2022/08/26 10:39:51;;;;;;;16.77;7.07;;;31.30;90.60;;;;;;5129213;28;20051;-78
2022/08/26 10:42:35;;;;;;;16.30;6.47;;;31.50;91.50;;;;;;5116010;28;20035;-79
2022/08/26 10:45:11;;;;;;;26.45;7.68;;;31.60;91.40;;;;;;5110452;28;20046;-78
2022/08/26 10:47:40;;;;;;;13.98;5.82;;;31.70;91.00;;;;;;5108840;28;20594;-78
2022/08/26 10:50:06;;;;;;;12.35;6.47;;;31.80;91.10;;;;;;5109416;28;20027;-80
2022/08/26 10:53:03;;;;;;;19.95;6.20;;;31.60;90.70;;;;;;5108372;28;20030;-81
2022/08/26 10:55:49;;;;;;;18.00;6.93;;;31.60;91.10;;;;;;5095463;28;20149;-81
2022/08/26 10:58:40;;;;;;;14.05;5.90;;;31.70;91.10;;;;;;5094157;28;20024;-83
2022/08/26 11:01:44;;;;;;;15.10;6.22;;;31.70;90.30;;;;;;5108996;28;20034;-81
2022/08/26 11:04:41;;;;;;;11.38;6.28;;;31.70;90.00;;;;;;5107076;28;20036;-82
2022/08/26 11:07:40;;;;;;;21.23;5.93;;;31.70;89.90;;;;;;5105844;28;20036;-83
2022/08/26 11:10:21;;;;;;;23.55;5.03;;;31.70;89.80;;;;;;5108399;28;20028;-81
2022/08/26 11:12:50;;;;;;;15.27;5.45;;;31.70;88.50;;;;;;5108411;28;20084;-82
2022/08/26 11:15:20;;;;;;;17.75;5.70;;;31.90;88.40;;;;;;5108284;28;20035;-81
2022/08/26 11:17:45;;;;;;;16.85;5.25;;;31.90;87.70;;;;;;5106390;28;20031;-81
2022/08/26 11:20:40;;;;;;;15.88;5.65;;;32.00;89.00;;;;;;5106582;28;20038;-81
2022/08/26 11:23:12;;;;;;;18.40;5.95;;;32.30;89.60;;;;;;5101089;28;20504;-81
2022/08/26 11:26:06;;;;;;;11.88;5.20;;;32.60;88.10;;;;;;5112417;28;20036;-82
2022/08/26 11:28:34;;;;;;;16.60;6.82;;;32.50;87.00;;;;;;5082270;28;20054;-82
2022/08/26 11:31:00;;;;;;;11.82;4.90;;;32.50;87.70;;;;;;5100886;28;20131;-81
2022/08/26 11:33:46;;;;;;;15.38;6.00;;;32.70;87.20;;;;;;5097314;28;20058;-82
2022/08/26 11:36:37;;;;;;;18.02;5.18;;;32.80;84.90;;;;;;5096873;28;20032;-79
2022/08/26 11:39:38;;;;;;;17.42;5.22;;;32.70;85.50;;;;;;5099640;28;20027;-82
2022/08/26 11:42:39;;;;;;;11.95;4.78;;;32.70;85.80;;;;;;5097109;28;20122;-82
2022/08/26 11:45:24;;;;;;;12.98;4.65;;;32.70;85.00;;;;;;5102351;27;20039;-82
2022/08/26 11:47:49;;;;;;;16.45;4.50;;;32.90;84.40;;;;;;5103514;28;20028;-83
2022/08/26 11:50:20;;;;;;;13.13;4.10;;;32.90;83.80;;;;;;5104406;28;20054;-81
2022/08/26 11:53:03;;;;;;;14.05;4.50;;;33.00;82.40;;;;;;5107061;28;20489;-81
2022/08/26 11:55:31;;;;;;;16.98;5.43;;;33.10;80.50;;;;;;5108444;28;20089;-80
2022/08/26 11:57:59;;;;;;;21.45;7.03;;;33.00;84.40;;;;;;5108524;28;20027;-82
2022/08/26 12:00:33;;;;;;;15.70;5.82;;;32.90;86.50;;;;;;5101455;28;20027;-81
2022/08/26 12:03:01;;;;;;;14.40;5.68;;;32.60;86.70;;;;;;5107752;27;20043;-81
2022/08/26 12:05:33;;;;;;;10.77;3.50;;;32.30;86.70;;;;;;5109466;28;20440;-80
2022/08/26 12:08:07;;;;;;;11.50;2.90;;;31.90;84.50;;;;;;5111033;28;20039;-81
2022/08/26 12:10:33;;;;;;;8.18;2.35;;;31.20;83.80;;;;;;5105154;28;20047;-81
2022/08/26 12:13:01;;;;;;;11.07;2.83;;;30.80;84.00;;;;;;5111730;28;20088;-78
2022/08/26 12:15:29;;;;;;;9.93;2.35;;;30.50;83.40;;;;;;5098674;28;20116;-81
2022/08/26 12:17:55;;;;;;;8.32;2.75;;;29.90;85.30;;;;;;5104315;28;20751;-81
2022/08/26 12:20:45;;;;;;;7.07;2.67;;;29.60;87.10;;;;;;5110431;28;20031;-83
2022/08/26 12:23:33;;;;;;;8.18;2.70;;;29.40;87.90;;;;;;5108172;28;20032;-82
2022/08/26 12:26:19;;;;;;;12.98;2.97;;;29.10;90.40;;;;;;5108130;28;20574;-80
2022/08/26 12:28:59;;;;;;;13.45;4.57;;;28.80;91.20;;;;;;5101063;28;20024;-82
2022/08/26 12:31:35;;;;;;;10.90;3.75;;;28.50;92.20;;;;;;5107147;28;20024;-83
2022/08/26 12:34:05;;;;;;;8.90;4.00;;;28.30;92.70;;;;;;5097380;28;20028;-81
2022/08/26 12:36:36;;;;;;;10.32;4.55;;;28.10;93.80;;;;;;5100401;28;20024;-80
2022/08/26 12:39:12;;;;;;;11.60;4.13;;;27.80;94.30;;;;;;5106876;28;20024;-81
2022/08/26 12:41:42;;;;;;;12.95;4.57;;;27.70;95.10;;;;;;5107406;28;22217;-82
2022/08/26 12:44:08;;;;;;;9.60;4.40;;;27.40;95.90;;;;;;5103244;28;20032;-83
2022/08/26 12:46:34;;;;;;;14.27;4.65;;;27.20;96.60;;;;;;5100274;28;20080;-80
2022/08/26 12:49:02;;;;;;;11.50;5.55;;;27.10;97.20;;;;;;5102524;28;20136;-82
2022/08/26 12:51:31;;;;;;;14.77;5.47;;;26.90;97.70;;;;;;5106226;28;20381;-83
2022/08/26 12:53:57;;;;;;;10.23;4.82;;;26.80;98.10;;;;;;5102159;28;20099;-82
2022/08/26 12:56:37;;;;;;;16.27;5.82;;;26.70;98.40;;;;;;5101415;28;20497;-80